sensor_id;sensor_type;location;lat;lon;timestamp;P1;durP1;ratioP1;P2;durP2;ratioP2
4486;SDS011;2256;48.740;9.106;2024-03-23T00:54:54;4.43;;;2.17;;
4486;SDS011;2256;48.740;9.106;2024-03-23T00:57:21;1.60;;;1.37;;
4486;SDS011;2256;48.740;9.106;2024-03-23T00:59:46;2.90;;;2.17;;
4486;SDS011;2256;48.740;9.106;2024-03-23T01:02:13;2.40;;;2.20;;
4486;SDS011;2256;48.740;9.106;2024-03-23T01:04:39;1.60;;;1.50;;
4486;SDS011;2256;48.740;9.106;2024-03-23T01:07:06;1.97;;;1.87;;
4486;SDS011;2256;48.740;9.106;2024-03-23T01:09:31;2.67;;;2.43;;
4486;SDS011;2256;48.740;9.106;2024-03-23T01:11:59;5.13;;;2.20;;
4486;SDS011;2256;48.740;9.106;2024-03-23T01:14:26;2.00;;;1.80;;
4486;SDS011;2256;48.740;9.106;2024-03-23T01:16:53;4.33;;;3.13;;
4486;SDS011;2256;48.740;9.106;2024-03-23T01:19:19;3.30;;;2.27;;
4486;SDS011;2256;48.740;9.106;2024-03-23T01:21:46;4.00;;;2.37;;
4486;SDS011;2256;48.740;9.106;2024-03-23T01:24:11;2.20;;;2.00;;
4486;SDS011;2256;48.740;9.106;2024-03-23T01:26:39;3.60;;;2.10;;
4486;SDS011;2256;48.740;9.106;2024-03-23T01:29:06;1.60;;;1.50;;
4486;SDS011;2256;48.740;9.106;2024-03-23T01:31:33;2.50;;;2.20;;
4486;SDS011;2256;48.740;9.106;2024-03-23T01:33:59;4.90;;;2.03;;
4486;SDS011;2256;48.740;9.106;2024-03-23T01:36:25;5.13;;;2.37;;
4486;SDS011;2256;48.740;9.106;2024-03-23T01:38:51;2.60;;;1.87;;
4486;SDS011;2256;48.740;9.106;2024-03-23T01:41:18;1.73;;;1.63;;
4486;SDS011;2256;48.740;9.106;2024-03-23T01:43:45;3.20;;;1.97;;
4486;SDS011;2256;48.740;9.106;2024-03-23T01:46:13;1.57;;;1.47;;
4486;SDS011;2256;48.740;9.106;2024-03-23T01:48:39;2.40;;;1.87;;
4486;SDS011;2256;48.740;9.106;2024-03-23T01:51:06;1.90;;;1.80;;
4486;SDS011;2256;48.740;9.106;2024-03-23T01:53:32;4.90;;;2.20;;
4486;SDS011;2256;48.740;9.106;2024-03-23T01:55:59;2.70;;;2.33;;
4486;SDS011;2256;48.740;9.106;2024-03-23T01:58:27;2.20;;;1.97;;
4486;SDS011;2256;48.740;9.106;2024-03-23T02:00:54;1.67;;;1.57;;
4486;SDS011;2256;48.740;9.106;2024-03-23T02:03:24;3.20;;;2.30;;
4486;SDS011;2256;48.740;9.106;2024-03-23T02:05:52;3.37;;;2.30;;
4486;SDS011;2256;48.740;9.106;2024-03-23T02:08:18;3.10;;;2.30;;
4486;SDS011;2256;48.740;9.106;2024-03-23T02:10:47;3.07;;;2.37;;
4486;SDS011;2256;48.740;9.106;2024-03-23T02:13:13;2.13;;;1.93;;
4486;SDS011;2256;48.740;9.106;2024-03-23T02:15:40;3.00;;;2.00;;
4486;SDS011;2256;48.740;9.106;2024-03-23T02:18:07;2.37;;;1.60;;
4486;SDS011;2256;48.740;9.106;2024-03-23T02:20:35;2.07;;;1.80;;
4486;SDS011;2256;48.740;9.106;2024-03-23T02:23:03;2.00;;;1.63;;
4486;SDS011;2256;48.740;9.106;2024-03-23T02:25:31;2.00;;;1.40;;
4486;SDS011;2256;48.740;9.106;2024-03-23T02:27:57;2.10;;;1.70;;
4486;SDS011;2256;48.740;9.106;2024-03-23T02:30:24;2.67;;;1.93;;
4486;SDS011;2256;48.740;9.106;2024-03-23T02:32:50;3.73;;;3.03;;
4486;SDS011;2256;48.740;9.106;2024-03-23T02:35:17;3.17;;;1.83;;
4486;SDS011;2256;48.740;9.106;2024-03-23T02:37:43;2.87;;;1.77;;
4486;SDS011;2256;48.740;9.106;2024-03-23T02:40:11;3.53;;;1.53;;
4486;SDS011;2256;48.740;9.106;2024-03-23T02:42:38;1.70;;;1.57;;
4486;SDS011;2256;48.740;9.106;2024-03-23T02:45:04;1.67;;;1.57;;
4486;SDS011;2256;48.740;9.106;2024-03-23T02:47:31;1.93;;;1.73;;
4486;SDS011;2256;48.740;9.106;2024-03-23T02:49:56;2.33;;;1.60;;
4486;SDS011;2256;48.740;9.106;2024-03-23T02:52:23;1.70;;;1.60;;
4486;SDS011;2256;48.740;9.106;2024-03-23T02:54:49;1.63;;;1.53;;
4486;SDS011;2256;48.740;9.106;2024-03-23T02:57:17;1.90;;;1.70;;
4486;SDS011;2256;48.740;9.106;2024-03-23T02:59:43;2.53;;;1.90;;
4486;SDS011;2256;48.740;9.106;2024-03-23T03:02:09;1.70;;;1.50;;
4486;SDS011;2256;48.740;9.106;2024-03-23T03:04:36;3.10;;;1.80;;
4486;SDS011;2256;48.740;9.106;2024-03-23T03:07:03;1.60;;;1.50;;
4486;SDS011;2256;48.740;9.106;2024-03-23T03:09:29;3.93;;;2.10;;
4486;SDS011;2256;48.740;9.106;2024-03-23T03:11:55;2.30;;;2.10;;
4486;SDS011;2256;48.740;9.106;2024-03-23T03:14:23;3.90;;;2.03;;
4486;SDS011;2256;48.740;9.106;2024-03-23T03:16:49;1.90;;;1.70;;
4486;SDS011;2256;48.740;9.106;2024-03-23T03:19:15;1.67;;;1.50;;
4486;SDS011;2256;48.740;9.106;2024-03-23T03:21:42;6.00;;;1.77;;
4486;SDS011;2256;48.740;9.106;2024-03-23T03:24:08;2.13;;;1.80;;
4486;SDS011;2256;48.740;9.106;2024-03-23T03:26:35;3.33;;;1.97;;
4486;SDS011;2256;48.740;9.106;2024-03-23T03:29:01;2.10;;;1.90;;
4486;SDS011;2256;48.740;9.106;2024-03-23T03:31:30;5.17;;;2.10;;
4486;SDS011;2256;48.740;9.106;2024-03-23T03:33:56;1.93;;;1.50;;
4486;SDS011;2256;48.740;9.106;2024-03-23T03:36:22;2.07;;;1.73;;
4486;SDS011;2256;48.740;9.106;2024-03-23T03:38:48;4.47;;;1.60;;
4486;SDS011;2256;48.740;9.106;2024-03-23T03:41:15;1.40;;;1.30;;
4486;SDS011;2256;48.740;9.106;2024-03-23T03:43:41;2.13;;;1.60;;
4486;SDS011;2256;48.740;9.106;2024-03-23T03:46:08;2.17;;;1.97;;
4486;SDS011;2256;48.740;9.106;2024-03-23T03:48:36;2.13;;;1.90;;
4486;SDS011;2256;48.740;9.106;2024-03-23T03:51:03;1.80;;;1.70;;
4486;SDS011;2256;48.740;9.106;2024-03-23T03:53:29;3.00;;;1.90;;
4486;SDS011;2256;48.740;9.106;2024-03-23T03:55:56;1.37;;;1.27;;
4486;SDS011;2256;48.740;9.106;2024-03-23T03:58:21;4.70;;;1.90;;
4486;SDS011;2256;48.740;9.106;2024-03-23T04:00:48;2.97;;;1.90;;
4486;SDS011;2256;48.740;9.106;2024-03-23T04:03:14;3.70;;;1.83;;
4486;SDS011;2256;48.740;9.106;2024-03-23T04:05:42;2.00;;;1.77;;
4486;SDS011;2256;48.740;9.106;2024-03-23T04:08:08;2.03;;;1.83;;
4486;SDS011;2256;48.740;9.106;2024-03-23T04:10:34;1.63;;;1.30;;
4486;SDS011;2256;48.740;9.106;2024-03-23T04:13:01;1.90;;;1.70;;
4486;SDS011;2256;48.740;9.106;2024-03-23T04:15:29;1.77;;;1.47;;
4486;SDS011;2256;48.740;9.106;2024-03-23T04:17:55;2.30;;;2.10;;
4486;SDS011;2256;48.740;9.106;2024-03-23T04:20:22;2.00;;;1.80;;
4486;SDS011;2256;48.740;9.106;2024-03-23T04:22:49;3.30;;;2.10;;
4486;SDS011;2256;48.740;9.106;2024-03-23T04:25:16;2.47;;;1.90;;
4486;SDS011;2256;48.740;9.106;2024-03-23T04:27:44;2.03;;;1.57;;
4486;SDS011;2256;48.740;9.106;2024-03-23T04:30:12;2.50;;;2.07;;
4486;SDS011;2256;48.740;9.106;2024-03-23T04:32:38;2.07;;;1.90;;
4486;SDS011;2256;48.740;9.106;2024-03-23T04:35:05;2.07;;;1.70;;
4486;SDS011;2256;48.740;9.106;2024-03-23T04:37:31;1.93;;;1.60;;
4486;SDS011;2256;48.740;9.106;2024-03-23T04:40:00;3.20;;;1.60;;
4486;SDS011;2256;48.740;9.106;2024-03-23T04:42:28;1.90;;;1.80;;
4486;SDS011;2256;48.740;9.106;2024-03-23T04:44:55;1.77;;;1.30;;
4486;SDS011;2256;48.740;9.106;2024-03-23T04:47:21;2.60;;;1.70;;
4486;SDS011;2256;48.740;9.106;2024-03-23T04:49:48;4.67;;;2.20;;
4486;SDS011;2256;48.740;9.106;2024-03-23T04:52:15;1.53;;;1.43;;
4486;SDS011;2256;48.740;9.106;2024-03-23T04:54:42;1.63;;;1.53;;
4486;SDS011;2256;48.740;9.106;2024-03-23T04:57:11;2.43;;;2.23;;
4486;SDS011;2256;48.740;9.106;2024-03-23T04:59:37;2.67;;;1.60;;
4486;SDS011;2256;48.740;9.106;2024-03-23T05:02:04;3.77;;;2.10;;
4486;SDS011;2256;48.740;9.106;2024-03-23T05:04:30;5.20;;;2.40;;
4486;SDS011;2256;48.740;9.106;2024-03-23T05:06:57;4.70;;;1.97;;
4486;SDS011;2256;48.740;9.106;2024-03-23T05:09:24;5.53;;;2.60;;
4486;SDS011;2256;48.740;9.106;2024-03-23T05:11:54;3.50;;;2.60;;
4486;SDS011;2256;48.740;9.106;2024-03-23T05:14:23;6.67;;;3.00;;
4486;SDS011;2256;48.740;9.106;2024-03-23T05:16:48;8.00;;;4.47;;
4486;SDS011;2256;48.740;9.106;2024-03-23T05:19:15;9.53;;;4.10;;
4486;SDS011;2256;48.740;9.106;2024-03-23T05:21:41;8.60;;;4.03;;
4486;SDS011;2256;48.740;9.106;2024-03-23T05:24:08;8.67;;;4.57;;
4486;SDS011;2256;48.740;9.106;2024-03-23T05:26:34;9.33;;;3.70;;
4486;SDS011;2256;48.740;9.106;2024-03-23T05:29:01;8.60;;;4.40;;
4486;SDS011;2256;48.740;9.106;2024-03-23T05:31:29;13.77;;;4.37;;
4486;SDS011;2256;48.740;9.106;2024-03-23T05:33:56;6.67;;;4.90;;
4486;SDS011;2256;48.740;9.106;2024-03-23T05:36:22;9.40;;;4.10;;
4486;SDS011;2256;48.740;9.106;2024-03-23T05:38:50;8.60;;;3.70;;
4486;SDS011;2256;48.740;9.106;2024-03-23T05:41:16;7.00;;;3.67;;
4486;SDS011;2256;48.740;9.106;2024-03-23T05:43:42;12.07;;;4.93;;
4486;SDS011;2256;48.740;9.106;2024-03-23T05:46:08;8.27;;;3.83;;
4486;SDS011;2256;48.740;9.106;2024-03-23T05:48:36;12.47;;;4.80;;
4486;SDS011;2256;48.740;9.106;2024-03-23T05:51:02;9.90;;;4.23;;
4486;SDS011;2256;48.740;9.106;2024-03-23T05:53:29;10.20;;;3.40;;
4486;SDS011;2256;48.740;9.106;2024-03-23T05:56:00;5.27;;;2.93;;
4486;SDS011;2256;48.740;9.106;2024-03-23T05:58:28;7.60;;;2.60;;
4486;SDS011;2256;48.740;9.106;2024-03-23T06:00:56;7.20;;;3.20;;
4486;SDS011;2256;48.740;9.106;2024-03-23T06:03:24;4.63;;;2.40;;
4486;SDS011;2256;48.740;9.106;2024-03-23T06:05:51;2.80;;;2.27;;
4486;SDS011;2256;48.740;9.106;2024-03-23T06:08:18;2.77;;;1.93;;
4486;SDS011;2256;48.740;9.106;2024-03-23T06:10:44;5.53;;;2.57;;
4486;SDS011;2256;48.740;9.106;2024-03-23T06:13:11;2.83;;;1.23;;
4486;SDS011;2256;48.740;9.106;2024-03-23T06:15:37;2.90;;;2.00;;
4486;SDS011;2256;48.740;9.106;2024-03-23T06:18:04;1.30;;;1.00;;
4486;SDS011;2256;48.740;9.106;2024-03-23T06:20:30;1.83;;;1.20;;
4486;SDS011;2256;48.740;9.106;2024-03-23T06:22:58;0.90;;;0.90;;
4486;SDS011;2256;48.740;9.106;2024-03-23T06:25:24;1.73;;;1.17;;
4486;SDS011;2256;48.740;9.106;2024-03-23T06:27:51;1.43;;;1.17;;
4486;SDS011;2256;48.740;9.106;2024-03-23T06:30:17;1.33;;;1.00;;
4486;SDS011;2256;48.740;9.106;2024-03-23T06:32:44;1.27;;;1.10;;
4486;SDS011;2256;48.740;9.106;2024-03-23T06:35:09;1.27;;;1.17;;
4486;SDS011;2256;48.740;9.106;2024-03-23T06:37:36;1.10;;;1.00;;
4486;SDS011;2256;48.740;9.106;2024-03-23T06:40:06;0.90;;;0.90;;
4486;SDS011;2256;48.740;9.106;2024-03-23T06:42:34;0.80;;;0.80;;
4486;SDS011;2256;48.740;9.106;2024-03-23T06:45:00;0.80;;;0.80;;
4486;SDS011;2256;48.740;9.106;2024-03-23T06:47:27;0.80;;;0.80;;
4486;SDS011;2256;48.740;9.106;2024-03-23T06:49:53;0.80;;;0.80;;
4486;SDS011;2256;48.740;9.106;2024-03-23T06:52:20;1.00;;;1.00;;
4486;SDS011;2256;48.740;9.106;2024-03-23T06:54:46;1.47;;;1.00;;
4486;SDS011;2256;48.740;9.106;2024-03-23T06:57:14;0.80;;;0.80;;
4486;SDS011;2256;48.740;9.106;2024-03-23T06:59:40;0.80;;;0.80;;
4486;SDS011;2256;48.740;9.106;2024-03-23T07:02:07;0.70;;;0.70;;
4486;SDS011;2256;48.740;9.106;2024-03-23T07:04:33;0.80;;;0.77;;
4486;SDS011;2256;48.740;9.106;2024-03-23T07:07:00;0.70;;;0.70;;
4486;SDS011;2256;48.740;9.106;2024-03-23T07:09:27;0.70;;;0.70;;
4486;SDS011;2256;48.740;9.106;2024-03-23T07:11:54;0.70;;;0.70;;
4486;SDS011;2256;48.740;9.106;2024-03-23T07:14:21;0.80;;;0.80;;
4486;SDS011;2256;48.740;9.106;2024-03-23T07:16:48;3.27;;;1.20;;
4486;SDS011;2256;48.740;9.106;2024-03-23T07:19:14;0.70;;;0.70;;
4486;SDS011;2256;48.740;9.106;2024-03-23T07:21:42;1.60;;;0.70;;
4486;SDS011;2256;48.740;9.106;2024-03-23T07:24:08;0.80;;;0.80;;
4486;SDS011;2256;48.740;9.106;2024-03-23T07:26:35;0.80;;;0.80;;
4486;SDS011;2256;48.740;9.106;2024-03-23T07:29:01;0.70;;;0.70;;
4486;SDS011;2256;48.740;9.106;2024-03-23T07:31:30;0.67;;;0.67;;
4486;SDS011;2256;48.740;9.106;2024-03-23T07:33:56;0.80;;;0.80;;
4486;SDS011;2256;48.740;9.106;2024-03-23T07:36:22;0.70;;;0.70;;
4486;SDS011;2256;48.740;9.106;2024-03-23T07:38:48;0.70;;;0.70;;
4486;SDS011;2256;48.740;9.106;2024-03-23T07:41:16;2.90;;;0.87;;
4486;SDS011;2256;48.740;9.106;2024-03-23T07:43:42;0.83;;;0.70;;
4486;SDS011;2256;48.740;9.106;2024-03-23T07:46:09;0.80;;;0.80;;
4486;SDS011;2256;48.740;9.106;2024-03-23T07:48:38;0.80;;;0.80;;
4486;SDS011;2256;48.740;9.106;2024-03-23T07:51:08;0.90;;;0.90;;
4486;SDS011;2256;48.740;9.106;2024-03-23T07:53:36;0.70;;;0.70;;
4486;SDS011;2256;48.740;9.106;2024-03-23T07:56:05;0.70;;;0.70;;
4486;SDS011;2256;48.740;9.106;2024-03-23T07:58:32;0.70;;;0.70;;
4486;SDS011;2256;48.740;9.106;2024-03-23T08:01:03;0.97;;;0.70;;
4486;SDS011;2256;48.740;9.106;2024-03-23T08:03:30;0.70;;;0.70;;
4486;SDS011;2256;48.740;9.106;2024-03-23T08:05:58;0.80;;;0.80;;
4486;SDS011;2256;48.740;9.106;2024-03-23T08:08:31;0.70;;;0.70;;
4486;SDS011;2256;48.740;9.106;2024-03-23T08:10:58;0.70;;;0.70;;
4486;SDS011;2256;48.740;9.106;2024-03-23T08:13:23;0.80;;;0.80;;
4486;SDS011;2256;48.740;9.106;2024-03-23T08:15:50;0.70;;;0.70;;
4486;SDS011;2256;48.740;9.106;2024-03-23T08:18:16;0.73;;;0.73;;
4486;SDS011;2256;48.740;9.106;2024-03-23T08:20:42;0.70;;;0.70;;
4486;SDS011;2256;48.740;9.106;2024-03-23T08:23:10;0.90;;;0.90;;
4486;SDS011;2256;48.740;9.106;2024-03-23T08:25:36;0.80;;;0.80;;
4486;SDS011;2256;48.740;9.106;2024-03-23T08:28:02;0.80;;;0.80;;
4486;SDS011;2256;48.740;9.106;2024-03-23T08:30:30;0.80;;;0.80;;
4486;SDS011;2256;48.740;9.106;2024-03-23T08:32:55;1.10;;;1.00;;
4486;SDS011;2256;48.740;9.106;2024-03-23T08:35:22;1.07;;;0.90;;
4486;SDS011;2256;48.740;9.106;2024-03-23T08:37:48;1.57;;;0.80;;
4486;SDS011;2256;48.740;9.106;2024-03-23T08:40:16;1.27;;;1.17;;
4486;SDS011;2256;48.740;9.106;2024-03-23T08:42:42;1.30;;;1.00;;
4486;SDS011;2256;48.740;9.106;2024-03-23T08:45:09;2.57;;;1.53;;
4486;SDS011;2256;48.740;9.106;2024-03-23T08:47:35;0.97;;;0.90;;
4486;SDS011;2256;48.740;9.106;2024-03-23T08:50:02;0.90;;;0.90;;
4486;SDS011;2256;48.740;9.106;2024-03-23T08:52:29;0.97;;;0.90;;
4486;SDS011;2256;48.740;9.106;2024-03-23T08:54:56;1.27;;;1.00;;
4486;SDS011;2256;48.740;9.106;2024-03-23T08:57:23;1.10;;;1.10;;
4486;SDS011;2256;48.740;9.106;2024-03-23T08:59:50;0.90;;;0.90;;
4486;SDS011;2256;48.740;9.106;2024-03-23T09:02:16;0.93;;;0.93;;
4486;SDS011;2256;48.740;9.106;2024-03-23T09:04:43;0.80;;;0.80;;
4486;SDS011;2256;48.740;9.106;2024-03-23T09:07:09;0.93;;;0.93;;
4486;SDS011;2256;48.740;9.106;2024-03-23T09:09:37;0.97;;;0.97;;
4486;SDS011;2256;48.740;9.106;2024-03-23T09:12:03;1.17;;;1.07;;
4486;SDS011;2256;48.740;9.106;2024-03-23T09:14:32;1.23;;;1.10;;
4486;SDS011;2256;48.740;9.106;2024-03-23T09:16:58;1.00;;;0.90;;
4486;SDS011;2256;48.740;9.106;2024-03-23T09:19:26;1.70;;;1.40;;
4486;SDS011;2256;48.740;9.106;2024-03-23T09:21:53;1.67;;;1.50;;
4486;SDS011;2256;48.740;9.106;2024-03-23T09:24:20;1.73;;;1.47;;
4486;SDS011;2256;48.740;9.106;2024-03-23T09:26:46;1.03;;;1.00;;
4486;SDS011;2256;48.740;9.106;2024-03-23T09:29:14;1.60;;;1.50;;
4486;SDS011;2256;48.740;9.106;2024-03-23T09:31:41;1.30;;;1.20;;
4486;SDS011;2256;48.740;9.106;2024-03-23T09:34:08;1.70;;;1.60;;
4486;SDS011;2256;48.740;9.106;2024-03-23T09:36:33;2.70;;;1.43;;
4486;SDS011;2256;48.740;9.106;2024-03-23T09:39:00;2.17;;;1.70;;
4486;SDS011;2256;48.740;9.106;2024-03-23T09:41:26;1.17;;;1.17;;
4486;SDS011;2256;48.740;9.106;2024-03-23T09:43:53;1.90;;;1.70;;
4486;SDS011;2256;48.740;9.106;2024-03-23T09:46:19;1.80;;;1.50;;
4486;SDS011;2256;48.740;9.106;2024-03-23T09:48:47;1.70;;;1.60;;
4486;SDS011;2256;48.740;9.106;2024-03-23T09:51:13;1.70;;;1.60;;
4486;SDS011;2256;48.740;9.106;2024-03-23T09:53:40;1.30;;;1.20;;
4486;SDS011;2256;48.740;9.106;2024-03-23T09:56:07;2.20;;;1.60;;
4486;SDS011;2256;48.740;9.106;2024-03-23T09:58:34;5.23;;;1.60;;
4486;SDS011;2256;48.740;9.106;2024-03-23T10:01:01;1.60;;;1.50;;
4486;SDS011;2256;48.740;9.106;2024-03-23T10:03:28;5.40;;;2.10;;
4486;SDS011;2256;48.740;9.106;2024-03-23T10:06:02;2.40;;;1.50;;
4486;SDS011;2256;48.740;9.106;2024-03-23T10:08:30;1.83;;;1.40;;
4486;SDS011;2256;48.740;9.106;2024-03-23T10:10:56;10.57;;;1.73;;
4486;SDS011;2256;48.740;9.106;2024-03-23T10:13:26;2.30;;;2.07;;
4486;SDS011;2256;48.740;9.106;2024-03-23T10:15:54;2.00;;;1.57;;
4486;SDS011;2256;48.740;9.106;2024-03-23T10:18:23;3.63;;;1.73;;
4486;SDS011;2256;48.740;9.106;2024-03-23T10:20:50;2.13;;;1.33;;
4486;SDS011;2256;48.740;9.106;2024-03-23T10:23:19;2.70;;;1.70;;
4486;SDS011;2256;48.740;9.106;2024-03-23T10:25:47;1.50;;;1.30;;
4486;SDS011;2256;48.740;9.106;2024-03-23T10:28:14;2.40;;;1.57;;
4486;SDS011;2256;48.740;9.106;2024-03-23T10:30:40;1.87;;;1.50;;
4486;SDS011;2256;48.740;9.106;2024-03-23T10:33:08;1.30;;;1.20;;
4486;SDS011;2256;48.740;9.106;2024-03-23T10:35:34;3.60;;;1.57;;
4486;SDS011;2256;48.740;9.106;2024-03-23T10:38:03;7.20;;;1.87;;
4486;SDS011;2256;48.740;9.106;2024-03-23T10:40:32;2.20;;;2.00;;
4486;SDS011;2256;48.740;9.106;2024-03-23T10:43:00;2.27;;;1.80;;
4486;SDS011;2256;48.740;9.106;2024-03-23T10:45:29;2.93;;;2.10;;
4486;SDS011;2256;48.740;9.106;2024-03-23T10:47:56;3.20;;;1.60;;
4486;SDS011;2256;48.740;9.106;2024-03-23T10:50:23;4.93;;;1.77;;
4486;SDS011;2256;48.740;9.106;2024-03-23T10:52:49;2.83;;;1.70;;
4486;SDS011;2256;48.740;9.106;2024-03-23T10:55:19;1.30;;;1.20;;
4486;SDS011;2256;48.740;9.106;2024-03-23T10:57:49;1.67;;;1.50;;
4486;SDS011;2256;48.740;9.106;2024-03-23T11:00:19;0.90;;;0.90;;
4486;SDS011;2256;48.740;9.106;2024-03-23T11:02:46;1.13;;;1.02;;
4486;SDS011;2256;48.740;9.106;2024-03-23T11:05:29;1.30;;;1.20;;
4486;SDS011;2256;48.740;9.106;2024-03-23T11:07:56;2.83;;;1.25;;
4486;SDS011;2256;48.740;9.106;2024-03-23T11:10:27;2.33;;;1.75;;
4486;SDS011;2256;48.740;9.106;2024-03-23T11:12:56;1.10;;;1.10;;
4486;SDS011;2256;48.740;9.106;2024-03-23T11:15:23;16.33;;;2.03;;
4486;SDS011;2256;48.740;9.106;2024-03-23T11:20:37;1.23;;;1.07;;
4486;SDS011;2256;48.740;9.106;2024-03-23T11:23:03;2.20;;;1.27;;
4486;SDS011;2256;48.740;9.106;2024-03-23T11:25:30;1.33;;;1.13;;
4486;SDS011;2256;48.740;9.106;2024-03-23T11:27:58;2.00;;;1.07;;
4486;SDS011;2256;48.740;9.106;2024-03-23T11:30:37;1.20;;;1.10;;
4486;SDS011;2256;48.740;9.106;2024-03-23T11:33:03;1.23;;;1.13;;
4486;SDS011;2256;48.740;9.106;2024-03-23T11:35:31;1.47;;;1.37;;
4486;SDS011;2256;48.740;9.106;2024-03-23T11:38:05;1.40;;;1.30;;
4486;SDS011;2256;48.740;9.106;2024-03-23T11:40:33;2.13;;;1.47;;
4486;SDS011;2256;48.740;9.106;2024-03-23T11:43:02;1.47;;;1.37;;
4486;SDS011;2256;48.740;9.106;2024-03-23T11:45:33;2.67;;;1.07;;
4486;SDS011;2256;48.740;9.106;2024-03-23T11:48:07;1.40;;;1.30;;
4486;SDS011;2256;48.740;9.106;2024-03-23T11:50:36;0.80;;;0.80;;
4486;SDS011;2256;48.740;9.106;2024-03-23T11:53:12;4.63;;;1.00;;
4486;SDS011;2256;48.740;9.106;2024-03-23T11:55:44;2.87;;;1.30;;
4486;SDS011;2256;48.740;9.106;2024-03-23T11:58:15;1.23;;;1.13;;
4486;SDS011;2256;48.740;9.106;2024-03-23T12:00:43;1.43;;;0.90;;
4486;SDS011;2256;48.740;9.106;2024-03-23T12:03:15;10.37;;;2.47;;
4486;SDS011;2256;48.740;9.106;2024-03-23T12:05:46;2.63;;;1.00;;
4486;SDS011;2256;48.740;9.106;2024-03-23T12:08:17;1.40;;;1.30;;
4486;SDS011;2256;48.740;9.106;2024-03-23T12:10:48;2.97;;;1.67;;
4486;SDS011;2256;48.740;9.106;2024-03-23T12:13:17;0.93;;;0.93;;
4486;SDS011;2256;48.740;9.106;2024-03-23T12:15:48;1.43;;;1.00;;
4486;SDS011;2256;48.740;9.106;2024-03-23T12:18:15;0.70;;;0.70;;
4486;SDS011;2256;48.740;9.106;2024-03-23T12:20:43;2.63;;;0.93;;
4486;SDS011;2256;48.740;9.106;2024-03-23T12:23:09;0.90;;;0.90;;
4486;SDS011;2256;48.740;9.106;2024-03-23T12:25:36;1.10;;;1.00;;
4486;SDS011;2256;48.740;9.106;2024-03-23T12:28:03;8.47;;;1.47;;
4486;SDS011;2256;48.740;9.106;2024-03-23T12:30:34;3.57;;;1.37;;
4486;SDS011;2256;48.740;9.106;2024-03-23T12:33:00;1.67;;;1.50;;
4486;SDS011;2256;48.740;9.106;2024-03-23T12:35:28;1.00;;;1.00;;
4486;SDS011;2256;48.740;9.106;2024-03-23T12:37:54;1.87;;;1.40;;
4486;SDS011;2256;48.740;9.106;2024-03-23T12:40:21;2.10;;;1.43;;
4486;SDS011;2256;48.740;9.106;2024-03-23T12:42:47;4.50;;;1.70;;
4486;SDS011;2256;48.740;9.106;2024-03-23T12:45:14;1.57;;;1.47;;
4486;SDS011;2256;48.740;9.106;2024-03-23T12:47:41;5.60;;;1.47;;
4486;SDS011;2256;48.740;9.106;2024-03-23T12:50:08;6.93;;;1.47;;
4486;SDS011;2256;48.740;9.106;2024-03-23T12:52:35;6.73;;;1.40;;
4486;SDS011;2256;48.740;9.106;2024-03-23T12:55:01;1.33;;;1.10;;
4486;SDS011;2256;48.740;9.106;2024-03-23T12:57:28;3.23;;;1.53;;
4486;SDS011;2256;48.740;9.106;2024-03-23T12:59:55;1.77;;;1.20;;
4486;SDS011;2256;48.740;9.106;2024-03-23T13:02:21;1.80;;;1.17;;
4486;SDS011;2256;48.740;9.106;2024-03-23T13:04:50;9.47;;;2.53;;
4486;SDS011;2256;48.740;9.106;2024-03-23T13:07:17;1.00;;;1.00;;
4486;SDS011;2256;48.740;9.106;2024-03-23T13:09:45;1.73;;;1.37;;
4486;SDS011;2256;48.740;9.106;2024-03-23T13:12:11;3.60;;;1.70;;
4486;SDS011;2256;48.740;9.106;2024-03-23T13:14:38;3.83;;;3.53;;
4486;SDS011;2256;48.740;9.106;2024-03-23T13:17:04;1.43;;;1.20;;
4486;SDS011;2256;48.740;9.106;2024-03-23T13:19:32;3.43;;;1.43;;
4486;SDS011;2256;48.740;9.106;2024-03-23T13:21:59;1.60;;;1.33;;
4486;SDS011;2256;48.740;9.106;2024-03-23T13:24:27;6.13;;;1.53;;
4486;SDS011;2256;48.740;9.106;2024-03-23T13:26:53;10.40;;;1.13;;
4486;SDS011;2256;48.740;9.106;2024-03-23T13:29:20;6.77;;;1.07;;
4486;SDS011;2256;48.740;9.106;2024-03-23T13:31:47;0.80;;;0.80;;
4486;SDS011;2256;48.740;9.106;2024-03-23T13:34:15;2.23;;;1.43;;
4486;SDS011;2256;48.740;9.106;2024-03-23T13:36:41;0.80;;;0.80;;
4486;SDS011;2256;48.740;9.106;2024-03-23T13:39:09;11.50;;;1.10;;
4486;SDS011;2256;48.740;9.106;2024-03-23T13:41:37;0.90;;;0.90;;
4486;SDS011;2256;48.740;9.106;2024-03-23T13:44:04;1.67;;;1.13;;
4486;SDS011;2256;48.740;9.106;2024-03-23T13:46:30;0.70;;;0.70;;
4486;SDS011;2256;48.740;9.106;2024-03-23T13:48:57;1.03;;;0.90;;
4486;SDS011;2256;48.740;9.106;2024-03-23T13:51:23;0.67;;;0.67;;
4486;SDS011;2256;48.740;9.106;2024-03-23T13:53:52;0.83;;;0.83;;
4486;SDS011;2256;48.740;9.106;2024-03-23T13:56:19;1.13;;;1.00;;
4486;SDS011;2256;48.740;9.106;2024-03-23T13:58:46;1.23;;;1.00;;
4486;SDS011;2256;48.740;9.106;2024-03-23T14:01:12;0.83;;;0.83;;
4486;SDS011;2256;48.740;9.106;2024-03-23T14:03:40;1.00;;;1.00;;
4486;SDS011;2256;48.740;9.106;2024-03-23T14:06:06;0.90;;;0.90;;
4486;SDS011;2256;48.740;9.106;2024-03-23T14:08:33;0.80;;;0.80;;
4486;SDS011;2256;48.740;9.106;2024-03-23T14:11:01;1.00;;;1.00;;
4486;SDS011;2256;48.740;9.106;2024-03-23T14:13:30;0.87;;;0.87;;
4486;SDS011;2256;48.740;9.106;2024-03-23T14:15:56;0.93;;;0.93;;
4486;SDS011;2256;48.740;9.106;2024-03-23T14:18:24;1.60;;;0.90;;
4486;SDS011;2256;48.740;9.106;2024-03-23T14:20:51;2.00;;;0.93;;
4486;SDS011;2256;48.740;9.106;2024-03-23T14:23:18;0.90;;;0.90;;
4486;SDS011;2256;48.740;9.106;2024-03-23T14:25:44;0.80;;;0.80;;
4486;SDS011;2256;48.740;9.106;2024-03-23T14:28:11;0.60;;;0.60;;
4486;SDS011;2256;48.740;9.106;2024-03-23T14:30:41;0.90;;;0.90;;
4486;SDS011;2256;48.740;9.106;2024-03-23T14:33:08;4.20;;;1.27;;
4486;SDS011;2256;48.740;9.106;2024-03-23T14:35:34;0.80;;;0.80;;
4486;SDS011;2256;48.740;9.106;2024-03-23T14:38:01;1.53;;;0.97;;
4486;SDS011;2256;48.740;9.106;2024-03-23T14:40:27;1.00;;;0.90;;
4486;SDS011;2256;48.740;9.106;2024-03-23T14:42:54;0.73;;;0.73;;
4486;SDS011;2256;48.740;9.106;2024-03-23T14:45:20;0.83;;;0.83;;
4486;SDS011;2256;48.740;9.106;2024-03-23T14:47:50;1.00;;;0.83;;
4486;SDS011;2256;48.740;9.106;2024-03-23T14:50:15;0.93;;;0.93;;
4486;SDS011;2256;48.740;9.106;2024-03-23T14:52:43;1.37;;;1.10;;
4486;SDS011;2256;48.740;9.106;2024-03-23T14:55:10;3.43;;;0.80;;
4486;SDS011;2256;48.740;9.106;2024-03-23T14:57:37;1.00;;;1.00;;
4486;SDS011;2256;48.740;9.106;2024-03-23T15:00:05;1.27;;;1.07;;
4486;SDS011;2256;48.740;9.106;2024-03-23T15:02:35;3.33;;;0.90;;
4486;SDS011;2256;48.740;9.106;2024-03-23T15:05:02;0.90;;;0.90;;
4486;SDS011;2256;48.740;9.106;2024-03-23T15:07:29;1.00;;;0.90;;
4486;SDS011;2256;48.740;9.106;2024-03-23T15:09:55;1.00;;;0.90;;
4486;SDS011;2256;48.740;9.106;2024-03-23T15:12:22;0.82;;;0.80;;
4486;SDS011;2256;48.740;9.106;2024-03-23T15:14:48;1.13;;;1.03;;
4486;SDS011;2256;48.740;9.106;2024-03-23T15:17:14;1.10;;;1.00;;
4486;SDS011;2256;48.740;9.106;2024-03-23T15:19:40;1.03;;;1.00;;
4486;SDS011;2256;48.740;9.106;2024-03-23T15:22:09;2.13;;;1.07;;
4486;SDS011;2256;48.740;9.106;2024-03-23T15:24:35;2.28;;;0.85;;
4486;SDS011;2256;48.740;9.106;2024-03-23T15:27:02;0.93;;;0.90;;
4486;SDS011;2256;48.740;9.106;2024-03-23T15:29:28;0.70;;;0.70;;
4486;SDS011;2256;48.740;9.106;2024-03-23T15:31:55;1.10;;;1.10;;
4486;SDS011;2256;48.740;9.106;2024-03-23T15:34:21;0.80;;;0.80;;
4486;SDS011;2256;48.740;9.106;2024-03-23T15:36:48;1.97;;;1.40;;
4486;SDS011;2256;48.740;9.106;2024-03-23T15:39:16;2.50;;;1.20;;
4486;SDS011;2256;48.740;9.106;2024-03-23T15:41:44;2.67;;;0.97;;
4486;SDS011;2256;48.740;9.106;2024-03-23T15:44:10;0.73;;;0.73;;
4486;SDS011;2256;48.740;9.106;2024-03-23T15:46:37;1.20;;;1.10;;
4486;SDS011;2256;48.740;9.106;2024-03-23T15:49:03;0.80;;;0.80;;
4486;SDS011;2256;48.740;9.106;2024-03-23T15:51:30;1.80;;;1.20;;
4486;SDS011;2256;48.740;9.106;2024-03-23T15:53:58;1.03;;;1.03;;
4486;SDS011;2256;48.740;9.106;2024-03-23T15:56:26;4.37;;;1.00;;
4486;SDS011;2256;48.740;9.106;2024-03-23T15:58:53;0.93;;;0.93;;
4486;SDS011;2256;48.740;9.106;2024-03-23T16:01:20;0.90;;;0.90;;
4486;SDS011;2256;48.740;9.106;2024-03-23T16:03:46;0.80;;;0.80;;
4486;SDS011;2256;48.740;9.106;2024-03-23T16:06:13;1.50;;;0.80;;
4486;SDS011;2256;48.740;9.106;2024-03-23T16:08:39;1.03;;;0.97;;
4486;SDS011;2256;48.740;9.106;2024-03-23T16:11:06;0.70;;;0.70;;